createdAt,value
2022-07-29T00:01:19.731Z,6.63
2022-07-29T00:03:48.758Z,6.60
2022-07-29T00:06:18.091Z,6.10
2022-07-29T00:08:50.691Z,6.75
2022-07-29T00:11:18.817Z,5.90
2022-07-29T00:13:50.905Z,6.18
2022-07-29T00:16:20.187Z,6.28
2022-07-29T00:18:48.389Z,6.07
2022-07-29T00:21:16.786Z,5.80
2022-07-29T00:23:45.390Z,6.05
2022-07-29T00:26:32.322Z,6.82
2022-07-29T00:29:32.543Z,6.47
2022-07-29T00:31:51.754Z,6.05
2022-07-29T00:34:39.486Z,6.40
2022-07-29T00:37:08.159Z,6.15
2022-07-29T00:39:36.840Z,7.03
2022-07-29T00:42:08.475Z,6.75
2022-07-29T00:44:41.000Z,6.20
2022-07-29T00:47:11.364Z,6.07
2022-07-29T00:49:43.871Z,6.47
2022-07-29T00:52:13.142Z,6.93
2022-07-29T00:54:45.569Z,6.80
2022-07-29T00:57:14.467Z,6.68
2022-07-29T00:59:42.866Z,7.18
2022-07-29T01:02:11.733Z,6.22
2022-07-29T01:04:40.769Z,6.18
2022-07-29T01:07:09.172Z,6.43
2022-07-29T01:09:45.761Z,6.47
2022-07-29T01:12:19.686Z,7.20
2022-07-29T01:14:50.137Z,6.45
2022-07-29T01:17:35.257Z,5.97
2022-07-29T01:20:21.401Z,6.70
2022-07-29T01:22:55.595Z,6.10
2022-07-29T01:25:45.570Z,5.97
2022-07-29T01:28:35.796Z,6.32
2022-07-29T01:31:06.437Z,6.47
2022-07-29T01:33:52.201Z,6.22
2022-07-29T01:36:27.182Z,5.40
2022-07-29T01:39:21.261Z,5.10
2022-07-29T01:41:58.288Z,5.68
2022-07-29T01:44:35.805Z,5.15
2022-07-29T01:47:14.049Z,5.30
2022-07-29T01:49:49.230Z,5.10
2022-07-29T01:52:37.961Z,5.35
2022-07-29T01:55:16.455Z,5.15
2022-07-29T01:57:49.047Z,4.88
2022-07-29T02:00:18.209Z,4.68
2022-07-29T02:02:49.737Z,4.53
2022-07-29T02:05:22.999Z,4.70
2022-07-29T02:07:54.256Z,5.20
2022-07-29T02:10:26.034Z,4.78
2022-07-29T02:12:57.867Z,4.70
2022-07-29T02:15:28.599Z,5.30
2022-07-29T02:18:04.979Z,4.88
2022-07-29T02:20:33.727Z,4.45
2022-07-29T02:23:05.054Z,4.72
2022-07-29T02:25:36.915Z,4.70
2022-07-29T02:28:08.001Z,4.70
2022-07-29T02:30:43.740Z,4.85
2022-07-29T02:33:15.998Z,4.38
2022-07-29T02:35:47.670Z,4.57
2022-07-29T02:38:36.577Z,4.80
2022-07-29T02:41:13.012Z,4.78
2022-07-29T02:43:44.672Z,5.30
2022-07-29T02:46:28.386Z,4.57
2022-07-29T02:49:02.400Z,4.45
2022-07-29T02:51:45.363Z,4.50
2022-07-29T02:54:47.949Z,4.03
2022-07-29T02:57:23.475Z,4.80
2022-07-29T02:59:58.426Z,4.30
2022-07-29T03:02:30.061Z,4.43
2022-07-29T03:05:02.236Z,4.53
2022-07-29T03:07:33.268Z,3.92
2022-07-29T03:10:02.543Z,4.03
2022-07-29T03:12:32.654Z,3.60
2022-07-29T03:15:03.493Z,3.67
2022-07-29T03:17:33.305Z,3.78
2022-07-29T03:20:02.694Z,3.53
2022-07-29T03:22:32.226Z,3.22
2022-07-29T03:25:10.138Z,3.30
2022-07-29T03:27:38.851Z,3.40
2022-07-29T03:30:09.395Z,3.25
2022-07-29T03:32:38.621Z,4.07
2022-07-29T03:35:09.034Z,3.40
2022-07-29T03:37:37.847Z,3.17
2022-07-29T03:40:10.162Z,3.65
2022-07-29T03:42:43.525Z,3.30
2022-07-29T03:45:15.505Z,3.13
2022-07-29T03:47:49.993Z,3.40
2022-07-29T03:50:22.284Z,3.25
2022-07-29T03:52:51.398Z,3.30
2022-07-29T03:55:19.778Z,3.53
2022-07-29T03:57:48.977Z,4.20
2022-07-29T04:00:18.055Z,3.33
2022-07-29T04:02:50.078Z,3.15
2022-07-29T04:05:19.704Z,3.33
2022-07-29T04:07:49.344Z,3.28
2022-07-29T04:10:31.541Z,3.45
2022-07-29T04:13:01.200Z,2.90
2022-07-29T04:15:31.132Z,2.80
2022-07-29T04:18:00.706Z,3.15
2022-07-29T04:20:29.577Z,3.22
2022-07-29T04:22:57.763Z,3.30
2022-07-29T04:25:26.153Z,3.42
2022-07-29T04:28:03.685Z,3.20
2022-07-29T04:30:33.193Z,2.88
2022-07-29T04:33:07.125Z,2.90
2022-07-29T04:35:38.654Z,2.95
2022-07-29T04:38:15.706Z,3.00
2022-07-29T04:40:45.176Z,3.00
2022-07-29T04:43:14.249Z,3.30
2022-07-29T04:45:44.433Z,3.20
2022-07-29T04:48:13.121Z,3.40
2022-07-29T04:50:42.383Z,3.30
2022-07-29T04:53:11.094Z,3.17
2022-07-29T04:55:39.361Z,2.88
2022-07-29T04:58:08.745Z,3.03
2022-07-29T05:00:37.532Z,3.22
2022-07-29T05:03:05.905Z,2.78
2022-07-29T05:05:34.144Z,3.50
2022-07-29T05:08:02.941Z,3.55
2022-07-29T05:10:31.075Z,2.85
2022-07-29T05:12:59.363Z,3.10
2022-07-29T05:15:28.077Z,3.08
2022-07-29T05:17:56.277Z,3.30
2022-07-29T05:20:29.460Z,3.30
2022-07-29T05:22:59.687Z,3.25
2022-07-29T05:25:43.521Z,3.05
2022-07-29T05:28:13.544Z,2.95
2022-07-29T05:30:42.213Z,3.53
2022-07-29T05:33:35.124Z,3.70
2022-07-29T05:36:00.754Z,3.08
2022-07-29T05:38:30.267Z,3.30
2022-07-29T05:41:00.147Z,3.30
2022-07-29T05:43:30.036Z,3.72
2022-07-29T05:45:59.091Z,2.78
2022-07-29T05:48:27.501Z,3.17
2022-07-29T05:50:56.346Z,2.95
2022-07-29T05:53:25.947Z,2.97
2022-07-29T05:58:23.246Z,3.20
2022-07-29T06:00:52.094Z,3.38
2022-07-29T06:03:20.158Z,3.30
2022-07-29T06:05:49.093Z,3.38
2022-07-29T06:08:18.467Z,3.67
2022-07-29T06:10:47.158Z,3.65
2022-07-29T06:13:17.283Z,3.30
2022-07-29T06:15:45.817Z,3.30
2022-07-29T06:18:14.691Z,3.70
2022-07-29T06:20:43.803Z,3.28
2022-07-29T06:23:12.222Z,3.45
2022-07-29T06:25:42.098Z,3.33
2022-07-29T06:28:10.564Z,3.60
2022-07-29T06:30:39.557Z,3.70
2022-07-29T06:33:07.712Z,3.38
2022-07-29T06:35:38.313Z,3.67
2022-07-29T06:38:30.001Z,3.10
2022-07-29T06:41:09.062Z,3.40
2022-07-29T06:43:50.464Z,3.70
2022-07-29T06:46:21.484Z,3.58
2022-07-29T06:48:50.523Z,3.50
2022-07-29T06:51:22.651Z,3.40
2022-07-29T06:54:01.744Z,3.83
2022-07-29T06:56:38.992Z,3.50
2022-07-29T06:59:12.715Z,3.63
2022-07-29T07:01:44.809Z,3.30
2022-07-29T07:04:15.326Z,3.90
2022-07-29T07:06:44.156Z,3.40
2022-07-29T07:09:12.489Z,3.40
2022-07-29T07:11:41.778Z,3.42
2022-07-29T07:14:09.892Z,3.72
2022-07-29T07:16:38.797Z,3.38
2022-07-29T07:19:07.198Z,3.40
2022-07-29T07:21:35.270Z,3.28
2022-07-29T07:24:04.362Z,3.22
2022-07-29T07:26:32.749Z,2.97
2022-07-29T07:29:01.687Z,3.30
2022-07-29T07:31:30.225Z,3.42
2022-07-29T07:33:58.757Z,3.63
2022-07-29T07:36:27.072Z,3.50
2022-07-29T07:38:55.104Z,3.45
2022-07-29T07:41:25.122Z,3.38
2022-07-29T07:43:53.291Z,3.60
2022-07-29T07:46:22.534Z,3.92
2022-07-29T07:48:51.233Z,3.33
2022-07-29T07:51:56.584Z,3.65
2022-07-29T07:58:36.772Z,3.42
2022-07-29T08:01:05.429Z,3.45
2022-07-29T08:03:34.792Z,3.40
2022-07-29T08:06:05.304Z,4.53
2022-07-29T08:08:33.775Z,3.35
2022-07-29T08:11:08.559Z,4.40
2022-07-29T08:13:39.213Z,3.45
2022-07-29T08:16:16.460Z,3.70
2022-07-29T08:18:46.454Z,3.78
2022-07-29T08:21:16.224Z,3.45
2022-07-29T08:23:52.998Z,3.22
2022-07-29T08:26:26.755Z,3.45
2022-07-29T08:28:54.911Z,3.75
2022-07-29T08:31:23.005Z,3.80
2022-07-29T08:33:54.516Z,3.80
2022-07-29T08:36:22.938Z,3.90
2022-07-29T08:38:51.005Z,3.75
2022-07-29T08:41:25.001Z,3.25
2022-07-29T08:43:53.816Z,4.05
2022-07-29T08:46:23.848Z,3.70
2022-07-29T08:48:52.277Z,3.88
2022-07-29T08:51:22.687Z,3.75
2022-07-29T08:53:52.236Z,3.25
2022-07-29T08:56:21.072Z,3.50
2022-07-29T08:58:52.109Z,3.67
2022-07-29T09:01:36.289Z,3.75
2022-07-29T09:04:13.298Z,3.63
2022-07-29T09:06:46.748Z,3.30
2022-07-29T09:09:16.205Z,3.45
2022-07-29T09:11:44.722Z,3.58
2022-07-29T09:14:16.939Z,3.40
2022-07-29T09:16:57.802Z,3.70
2022-07-29T09:19:31.634Z,3.58
2022-07-29T09:22:03.357Z,3.50
2022-07-29T09:24:35.756Z,3.47
2022-07-29T09:27:12.867Z,3.55
2022-07-29T09:29:43.676Z,3.97
2022-07-29T09:32:14.976Z,3.55
2022-07-29T09:34:43.601Z,3.63
2022-07-29T09:37:12.928Z,3.70
2022-07-29T09:39:47.836Z,3.75
2022-07-29T09:42:29.785Z,3.78
2022-07-29T09:44:58.630Z,3.70
2022-07-29T09:50:10.195Z,4.22
2022-07-29T09:52:53.175Z,4.07
2022-07-29T09:55:22.240Z,4.13
2022-07-29T10:00:21.316Z,4.10
2022-07-29T10:02:50.430Z,4.00
2022-07-29T10:05:24.299Z,4.15
2022-07-29T10:07:58.134Z,4.22
2022-07-29T10:10:28.875Z,4.20
2022-07-29T10:13:07.968Z,4.90
2022-07-29T10:15:44.632Z,3.88
2022-07-29T10:18:18.709Z,4.97
2022-07-29T10:20:49.640Z,3.97
2022-07-29T10:23:18.367Z,4.28
2022-07-29T10:25:47.560Z,4.38
2022-07-29T10:28:16.698Z,4.32
2022-07-29T10:30:47.395Z,4.90
2022-07-29T10:33:38.134Z,4.13
2022-07-29T10:36:14.317Z,4.07
2022-07-29T10:39:06.111Z,4.30
2022-07-29T10:41:57.884Z,4.38
2022-07-29T10:44:28.722Z,4.40
2022-07-29T10:46:58.156Z,4.20
2022-07-29T10:49:30.701Z,4.53
2022-07-29T10:52:07.173Z,4.53
2022-07-29T10:54:46.647Z,4.35
2022-07-29T10:57:18.540Z,4.07
2022-07-29T11:00:16.824Z,4.40
2022-07-29T11:02:50.380Z,4.18
2022-07-29T11:05:22.539Z,5.05
2022-07-29T11:08:28.114Z,4.63
2022-07-29T11:11:20.243Z,5.05
2022-07-29T11:13:56.944Z,5.72
2022-07-29T11:16:26.992Z,5.22
2022-07-29T11:19:14.844Z,5.80
2022-07-29T11:21:53.977Z,5.68
2022-07-29T11:24:35.373Z,5.97
2022-07-29T11:30:07.195Z,6.30
2022-07-29T11:32:40.878Z,6.15
2022-07-29T11:35:37.411Z,5.28
2022-07-29T11:38:35.998Z,4.95
2022-07-29T11:41:19.248Z,5.20
2022-07-29T11:43:56.330Z,5.22
2022-07-29T11:46:43.359Z,4.75
2022-07-29T11:49:15.357Z,4.47
2022-07-29T11:51:48.127Z,4.85
2022-07-29T11:54:27.332Z,5.07
2022-07-29T11:56:56.874Z,4.90
2022-07-29T12:07:53.792Z,4.88
2022-07-29T12:10:30.412Z,4.53
2022-07-29T12:12:59.242Z,5.47
2022-07-29T12:15:39.185Z,5.28
2022-07-29T12:18:18.597Z,6.13
2022-07-29T12:20:47.654Z,6.18
2022-07-29T12:23:18.890Z,5.78
2022-07-29T12:25:49.833Z,5.90
2022-07-29T12:28:26.853Z,5.68
2022-07-29T12:30:55.783Z,5.60
2022-07-29T12:33:31.244Z,5.78
2022-07-29T12:36:07.561Z,5.65
2022-07-29T12:38:41.626Z,5.57
2022-07-29T12:41:10.150Z,5.68
2022-07-29T12:43:38.164Z,6.28
2022-07-29T12:46:16.470Z,6.70
2022-07-29T12:48:45.217Z,7.45
2022-07-29T12:51:15.664Z,6.78
2022-07-29T12:54:11.905Z,7.18
2022-07-29T12:56:43.167Z,6.97
2022-07-29T12:59:19.916Z,7.35
2022-07-29T13:01:50.774Z,6.68
2022-07-29T13:04:33.524Z,6.97
2022-07-29T13:07:05.083Z,7.65
2022-07-29T13:09:44.266Z,6.72
2022-07-29T13:12:15.402Z,7.50
2022-07-29T13:14:46.693Z,7.22
2022-07-29T13:17:18.412Z,6.68
2022-07-29T13:19:52.638Z,5.97
2022-07-29T13:24:53.687Z,6.30
2022-07-29T13:27:25.989Z,6.25
2022-07-29T13:29:57.820Z,6.90
2022-07-29T13:32:29.081Z,6.95
2022-07-29T13:34:59.472Z,8.05
2022-07-29T13:37:30.939Z,6.38
2022-07-29T13:40:00.506Z,7.43
2022-07-29T13:42:30.563Z,9.30
2022-07-29T13:45:00.617Z,9.45
2022-07-29T13:47:32.186Z,9.15
2022-07-29T13:50:03.328Z,8.20
2022-07-29T13:52:34.691Z,7.60
2022-07-29T13:55:04.726Z,7.97
2022-07-29T13:57:33.569Z,8.88
2022-07-29T14:02:36.946Z,10.60
2022-07-29T14:05:26.442Z,8.90
2022-07-29T14:07:55.093Z,8.40
2022-07-29T14:10:23.465Z,9.20
2022-07-29T14:12:51.648Z,8.43
2022-07-29T14:15:20.546Z,6.85
2022-07-29T14:17:48.706Z,6.75
2022-07-29T14:20:17.189Z,7.03
2022-07-29T14:22:46.015Z,7.32
2022-07-29T14:25:15.422Z,9.48
2022-07-29T14:27:45.425Z,14.27
2022-07-29T14:30:14.484Z,19.30
2022-07-29T14:32:44.102Z,18.65
2022-07-29T14:35:14.079Z,14.57
2022-07-29T14:37:47.784Z,14.90
2022-07-29T14:40:18.646Z,15.25
2022-07-29T14:42:49.204Z,16.35
2022-07-29T14:45:17.868Z,22.70
2022-07-29T14:47:46.016Z,16.30
2022-07-29T14:50:14.990Z,17.58
2022-07-29T14:53:20.506Z,19.27
2022-07-29T14:55:50.725Z,14.48
2022-07-29T14:58:19.784Z,11.05
2022-07-29T15:00:49.496Z,9.45
2022-07-29T15:03:24.095Z,9.07
2022-07-29T15:05:52.826Z,9.07
2022-07-29T15:08:22.884Z,9.30
2022-07-29T15:10:51.884Z,10.05
2022-07-29T15:13:21.307Z,11.38
2022-07-29T15:15:51.401Z,9.57
2022-07-29T15:18:25.671Z,8.02
2022-07-29T15:20:55.115Z,7.47
2022-07-29T15:23:23.563Z,7.00
2022-07-29T15:25:52.124Z,7.63
2022-07-29T15:28:21.871Z,7.70
2022-07-29T15:30:50.290Z,9.32
2022-07-29T15:33:19.849Z,8.65
2022-07-29T15:35:49.061Z,7.85
2022-07-29T15:38:18.090Z,6.22
2022-07-29T15:40:47.801Z,5.57
2022-07-29T15:43:17.128Z,5.10
2022-07-29T15:46:04.336Z,4.57
2022-07-29T15:48:33.415Z,4.75
2022-07-29T15:51:02.000Z,4.65
2022-07-29T15:53:30.641Z,4.38
2022-07-29T15:56:02.875Z,4.90
2022-07-29T15:58:34.397Z,4.47
2022-07-29T16:01:04.331Z,4.68
2022-07-29T16:03:34.513Z,4.50
2022-07-29T16:06:05.488Z,4.70
2022-07-29T16:08:34.937Z,4.80
2022-07-29T16:11:04.864Z,4.43
2022-07-29T16:13:35.143Z,4.70
2022-07-29T16:16:06.408Z,5.85
2022-07-29T16:18:35.800Z,4.25
2022-07-29T16:21:04.983Z,4.15
2022-07-29T16:23:33.682Z,4.38
2022-07-29T16:26:03.196Z,4.30
2022-07-29T16:28:32.779Z,4.00
2022-07-29T16:31:02.493Z,4.03
2022-07-29T16:33:55.551Z,3.85
2022-07-29T16:36:27.069Z,3.70
2022-07-29T16:38:59.130Z,3.75
2022-07-29T16:41:31.723Z,3.72
2022-07-29T16:44:02.547Z,3.75
2022-07-29T16:46:31.336Z,3.70
2022-07-29T16:49:00.082Z,3.47
2022-07-29T16:51:30.903Z,3.40
2022-07-29T16:53:59.741Z,3.88
2022-07-29T16:56:28.568Z,4.10
2022-07-29T16:58:59.576Z,3.80
2022-07-29T17:01:28.775Z,4.32
2022-07-29T17:04:07.905Z,3.78
2022-07-29T17:06:41.652Z,3.75
2022-07-29T17:09:16.144Z,4.63
2022-07-29T17:11:53.135Z,4.57
2022-07-29T17:14:29.130Z,4.45
2022-07-29T17:17:02.828Z,4.60
2022-07-29T17:19:35.760Z,4.57
2022-07-29T17:22:15.459Z,4.72
2022-07-29T17:24:49.187Z,4.15
2022-07-29T17:27:18.556Z,4.88
2022-07-29T17:29:49.408Z,5.07
2022-07-29T17:32:18.101Z,5.38
2022-07-29T17:34:47.031Z,4.75
2022-07-29T17:37:15.436Z,4.78
2022-07-29T17:39:43.869Z,5.22
2022-07-29T17:42:14.752Z,5.70
2022-07-29T17:44:42.933Z,5.82
2022-07-29T17:47:15.837Z,6.13
2022-07-29T17:49:46.012Z,5.32
2022-07-29T17:52:14.451Z,5.32
2022-07-29T17:54:42.702Z,6.38
2022-07-29T17:57:11.706Z,5.32
2022-07-29T17:59:39.888Z,5.32
2022-07-29T18:02:10.306Z,5.32
2022-07-29T18:04:39.284Z,5.38
2022-07-29T18:07:07.582Z,5.22
2022-07-29T18:09:39.259Z,4.88
2022-07-29T18:12:07.980Z,4.32
2022-07-29T18:14:36.109Z,4.18
2022-07-29T18:17:04.747Z,4.13
2022-07-29T18:19:33.960Z,4.03
2022-07-29T18:22:04.967Z,4.15
2022-07-29T18:24:35.329Z,3.70
2022-07-29T18:27:03.845Z,3.60
2022-07-29T18:29:31.846Z,3.60
2022-07-29T18:32:00.212Z,3.58
2022-07-29T18:34:29.689Z,3.85
2022-07-29T18:36:58.229Z,3.67
2022-07-29T18:39:27.078Z,3.75
2022-07-29T18:41:55.472Z,3.60
2022-07-29T18:44:23.929Z,3.67
2022-07-29T18:46:53.631Z,3.50
2022-07-29T18:49:23.308Z,3.22
2022-07-29T18:51:52.681Z,3.45
2022-07-29T18:54:21.374Z,3.33
2022-07-29T18:56:49.936Z,4.00
2022-07-29T18:59:20.615Z,4.30
2022-07-29T19:01:49.837Z,4.10
2022-07-29T19:04:18.277Z,4.53
2022-07-29T19:06:46.822Z,4.75
2022-07-29T19:09:16.554Z,4.20
2022-07-29T19:11:44.902Z,4.32
2022-07-29T19:14:13.251Z,4.10
2022-07-29T19:16:41.947Z,4.30
2022-07-29T19:19:10.844Z,3.97
2022-07-29T19:21:38.903Z,3.40
2022-07-29T19:24:13.610Z,4.22
2022-07-29T19:26:47.123Z,3.83
2022-07-29T19:29:16.465Z,4.47
2022-07-29T19:31:44.818Z,3.90
2022-07-29T19:34:13.359Z,3.85
2022-07-29T19:36:42.353Z,3.97
2022-07-29T19:39:10.970Z,3.55
2022-07-29T19:41:40.114Z,3.97
2022-07-29T19:46:36.909Z,4.05
2022-07-29T19:49:06.892Z,3.50
2022-07-29T19:51:35.881Z,3.97
2022-07-29T19:54:04.667Z,4.13
2022-07-29T19:56:33.406Z,4.10
2022-07-29T19:59:03.093Z,4.07
2022-07-29T20:01:36.712Z,4.25
2022-07-29T20:04:05.526Z,4.60
2022-07-29T20:06:35.157Z,3.90
2022-07-29T20:09:04.612Z,4.65
2022-07-29T20:11:37.181Z,3.95
2022-07-29T20:14:05.909Z,3.95
2022-07-29T20:16:34.474Z,4.00
2022-07-29T20:19:02.959Z,4.30
2022-07-29T20:21:31.823Z,4.03
2022-07-29T20:26:34.174Z,4.70
2022-07-29T20:29:05.629Z,5.13
2022-07-29T20:31:34.346Z,4.47
2022-07-29T20:34:02.984Z,4.55
2022-07-29T20:36:31.819Z,4.35
2022-07-29T20:39:01.404Z,4.60
2022-07-29T20:41:29.562Z,4.65
2022-07-29T20:43:58.384Z,4.53
2022-07-29T20:46:26.701Z,4.55
2022-07-29T20:48:55.237Z,4.00
2022-07-29T20:51:24.036Z,5.43
2022-07-29T20:53:52.236Z,3.63
2022-07-29T20:56:20.454Z,4.32
2022-07-29T20:58:49.886Z,4.07
2022-07-29T21:03:46.211Z,4.32
2022-07-29T21:06:16.317Z,4.07
2022-07-29T21:08:44.667Z,4.50
2022-07-29T21:11:13.057Z,4.07
2022-07-29T21:13:42.377Z,4.60
2022-07-29T21:16:14.747Z,4.30
2022-07-29T21:18:46.823Z,4.03
2022-07-29T21:21:16.793Z,3.80
2022-07-29T21:23:46.599Z,4.05
2022-07-29T21:26:16.266Z,3.53
2022-07-29T21:28:44.478Z,3.72
2022-07-29T21:31:15.034Z,4.50
2022-07-29T21:33:46.142Z,4.53
2022-07-29T21:36:46.456Z,4.03
2022-07-29T21:39:07.402Z,3.55
2022-07-29T21:41:36.426Z,3.75
2022-07-29T21:44:05.437Z,3.63
2022-07-29T21:46:33.483Z,3.50
2022-07-29T21:49:02.450Z,3.92
2022-07-29T21:51:30.367Z,4.43
2022-07-29T21:53:58.673Z,4.03
2022-07-29T21:56:28.005Z,4.28
2022-07-29T21:58:56.624Z,4.13
2022-07-29T22:03:54.231Z,3.50
2022-07-29T22:06:22.892Z,3.75
2022-07-29T22:08:50.769Z,4.07
2022-07-29T22:11:20.272Z,3.80
2022-07-29T22:16:16.550Z,4.10
2022-07-29T22:18:47.263Z,3.80
2022-07-29T22:21:16.182Z,3.75
2022-07-29T22:23:44.122Z,3.55
2022-07-29T22:26:12.677Z,3.78
2022-07-29T22:28:41.164Z,3.90
2022-07-29T22:31:10.426Z,3.03
2022-07-29T22:33:38.906Z,3.50
2022-07-29T22:36:07.731Z,3.42
2022-07-29T22:38:35.824Z,3.85
2022-07-29T22:41:04.257Z,3.67
2022-07-29T22:43:32.405Z,3.53
2022-07-29T22:46:00.758Z,4.00
2022-07-29T22:48:29.504Z,3.75
2022-07-29T22:50:57.579Z,3.80
2022-07-29T22:53:25.844Z,3.72
2022-07-29T22:55:55.447Z,3.53
2022-07-29T22:58:23.683Z,4.30
2022-07-29T23:00:54.280Z,3.28
2022-07-29T23:03:23.668Z,3.70
2022-07-29T23:05:52.209Z,4.07
2022-07-29T23:08:21.251Z,3.75
2022-07-29T23:10:50.086Z,3.60
2022-07-29T23:13:18.288Z,3.47
2022-07-29T23:15:46.709Z,3.90
2022-07-29T23:18:15.532Z,3.50
2022-07-29T23:20:45.914Z,3.53
2022-07-29T23:23:15.000Z,3.88
2022-07-29T23:25:43.522Z,3.95
2022-07-29T23:28:13.299Z,4.30
2022-07-29T23:30:42.847Z,4.40
2022-07-29T23:33:11.537Z,4.75
2022-07-29T23:35:39.832Z,5.00
2022-07-29T23:38:08.258Z,5.82
2022-07-29T23:40:36.925Z,5.18
2022-07-29T23:43:08.459Z,5.85
2022-07-29T23:45:42.781Z,6.85
2022-07-29T23:48:14.927Z,6.15
2022-07-29T23:50:43.733Z,6.32
2022-07-29T23:53:12.538Z,5.70
2022-07-29T23:55:40.729Z,7.30
2022-07-29T23:58:10.029Z,6.15
